Time;durP1;ratioP1;P1;durP2;ratioP2;P2;SDS_P1;SDS_P2;PMS_P1;PMS_P2;Temp;Humidity;BMP_temperature;BMP_pressure;BME280_temperature;BME280_humidity;BME280_pressure;Samples;Min_cycle;Max_cycle;Signal;HPM_P1;HPM_P2
2022/12/13 00:01:32;;;;;;;12.20;9.65;;;0.30;75.50;;;;;;5056124;28;20040;-82
2022/12/13 00:04:01;;;;;;;14.70;11.10;;;0.30;74.90;;;;;;5059267;28;20047;-82
2022/12/13 00:06:27;;;;;;;13.20;10.75;;;0.30;74.90;;;;;;5077933;28;20037;-83
2022/12/13 00:08:53;;;;;;;14.48;9.90;;;0.30;74.90;;;;;;5044675;28;20055;-82
2022/12/13 00:11:19;;;;;;;13.65;9.32;;;0.30;74.90;;;;;;5060270;28;20032;-83
2022/12/13 00:13:46;;;;;;;12.93;9.77;;;0.30;74.90;;;;;;5076354;28;20043;-81
2022/12/13 00:16:23;;;;;;;14.65;10.85;;;0.30;74.90;;;;;;5060055;28;20044;-82
2022/12/13 00:18:52;;;;;;;13.40;9.80;;;0.30;74.90;;;;;;5077558;28;20469;-82
2022/12/13 00:21:20;;;;;;;13.13;9.43;;;0.20;74.80;;;;;;5059733;28;20082;-82
2022/12/13 00:23:46;;;;;;;14.60;10.27;;;0.20;74.80;;;;;;5059914;28;20493;-82
2022/12/13 00:26:21;;;;;;;13.27;9.52;;;0.20;74.80;;;;;;5076187;28;20029;-82
2022/12/13 00:28:48;;;;;;;13.68;10.43;;;0.20;74.80;;;;;;5077150;28;20039;-83
2022/12/13 00:31:15;;;;;;;11.80;9.73;;;0.20;74.80;;;;;;5059972;28;20138;-82
2022/12/13 00:33:41;;;;;;;13.15;9.38;;;0.20;74.80;;;;;;5077277;28;20056;-83
2022/12/13 00:36:07;;;;;;;14.18;9.50;;;0.20;74.80;;;;;;5042828;28;20060;-82
2022/12/13 00:38:34;;;;;;;13.13;9.57;;;0.20;74.80;;;;;;5059670;28;20025;-83
2022/12/13 00:41:16;;;;;;;13.00;8.82;;;0.20;74.80;;;;;;5077276;28;20040;-81
2022/12/13 00:43:42;;;;;;;13.77;9.80;;;0.20;74.80;;;;;;5077254;28;20115;-82
2022/12/13 00:46:14;;;;;;;12.90;9.25;;;0.20;74.80;;;;;;5059344;28;20028;-82
2022/12/13 00:48:40;;;;;;;12.75;9.88;;;0.20;74.80;;;;;;5076250;28;20039;-82
2022/12/13 00:51:11;;;;;;;13.50;9.57;;;0.10;74.80;;;;;;5059470;28;20040;-82
2022/12/13 00:53:37;;;;;;;13.05;9.50;;;0.10;74.80;;;;;;5059522;28;20028;-81
2022/12/13 00:56:04;;;;;;;12.45;9.45;;;0.10;74.80;;;;;;5077372;28;20025;-81
2022/12/13 00:58:29;;;;;;;13.32;9.07;;;0.10;74.70;;;;;;5076204;28;20025;-82
2022/12/13 01:01:05;;;;;;;13.05;8.60;;;0.10;74.70;;;;;;5059603;28;20041;-82
2022/12/13 01:03:31;;;;;;;12.32;9.15;;;0.10;74.80;;;;;;5059062;28;20054;-82
2022/12/13 01:05:58;;;;;;;13.60;9.30;;;0.10;74.70;;;;;;5076607;28;20028;-82
2022/12/13 01:08:26;;;;;;;11.95;8.73;;;0.00;74.70;;;;;;5076629;28;20107;-82
2022/12/13 01:10:52;;;;;;;11.32;9.35;;;0.00;74.70;;;;;;5059270;28;20028;-83
2022/12/13 01:13:18;;;;;;;12.73;9.40;;;0.00;74.70;;;;;;5075535;28;20086;-82
2022/12/13 01:15:45;;;;;;;11.68;8.77;;;0.00;74.70;;;;;;5075731;28;20053;-82
2022/12/13 01:18:13;;;;;;;12.85;9.82;;;0.00;74.70;;;;;;5058980;28;20036;-80
2022/12/13 01:20:39;;;;;;;13.00;9.40;;;0.00;74.70;;;;;;5076598;28;20477;-81
2022/12/13 01:23:05;;;;;;;12.38;9.25;;;0.00;74.70;;;;;;5077444;28;20058;-83
2022/12/13 01:25:32;;;;;;;12.77;9.02;;;0.00;74.70;;;;;;5059218;28;20024;-81
2022/12/13 01:27:59;;;;;;;13.98;10.27;;;0.00;74.70;;;;;;5076586;28;20123;-82
2022/12/13 01:30:25;;;;;;;11.70;8.93;;;0.00;74.70;;;;;;5076251;28;20121;-81
2022/12/13 01:32:51;;;;;;;12.20;8.80;;;0.00;74.70;;;;;;5058589;28;20029;-82
2022/12/13 01:35:16;;;;;;;14.93;9.25;;;-0.10;74.60;;;;;;5076370;28;20035;-83
2022/12/13 01:37:42;;;;;;;11.98;8.98;;;-0.10;74.60;;;;;;5058105;28;20477;-82
2022/12/13 01:40:09;;;;;;;11.07;8.93;;;0.00;74.60;;;;;;5058443;28;20090;-81
2022/12/13 01:42:39;;;;;;;13.35;8.98;;;0.00;74.60;;;;;;5058239;28;20039;-82
2022/12/13 01:45:13;;;;;;;12.27;8.73;;;-0.10;74.60;;;;;;5075378;28;20032;-81
2022/12/13 01:47:47;;;;;;;11.93;8.52;;;-0.10;74.60;;;;;;5059042;28;20032;-82
2022/12/13 01:50:22;;;;;;;14.07;9.90;;;-0.10;74.60;;;;;;5058334;28;20035;-81
2022/12/13 01:52:49;;;;;;;12.15;9.35;;;-0.10;74.60;;;;;;5075996;28;20473;-82
2022/12/13 01:55:19;;;;;;;13.50;8.93;;;-0.20;74.60;;;;;;5042457;28;20119;-81
2022/12/13 01:57:47;;;;;;;10.98;8.25;;;-0.10;74.60;;;;;;5076133;28;20035;-81
2022/12/13 02:00:14;;;;;;;12.90;9.15;;;-0.10;74.60;;;;;;5075015;28;20036;-82
2022/12/13 02:02:40;;;;;;;12.00;8.95;;;-0.10;74.60;;;;;;5057858;28;20119;-81
2022/12/13 02:05:12;;;;;;;12.35;8.45;;;-0.20;74.50;;;;;;5074857;28;20113;-82
2022/12/13 02:07:40;;;;;;;10.68;8.52;;;-0.20;74.60;;;;;;5074775;28;20112;-82
2022/12/13 02:10:07;;;;;;;12.98;8.52;;;-0.20;74.60;;;;;;5074593;28;20036;-82
2022/12/13 02:12:35;;;;;;;12.25;9.23;;;-0.20;74.60;;;;;;5075763;28;20052;-82
2022/12/13 02:15:12;;;;;;;10.40;8.05;;;-0.20;74.60;;;;;;5075673;28;20087;-82
2022/12/13 02:18:13;;;;;;;12.90;8.98;;;-0.20;74.60;;;;;;5058384;28;20058;-82
2022/12/13 02:21:03;;;;;;;11.32;8.55;;;-0.20;74.60;;;;;;5041086;28;20043;-82
2022/12/13 02:23:37;;;;;;;12.80;9.07;;;-0.20;74.60;;;;;;5057722;28;20040;-81
2022/12/13 02:26:29;;;;;;;11.07;8.52;;;-0.30;74.50;;;;;;5073819;28;20032;-80
2022/12/13 02:29:12;;;;;;;10.82;7.72;;;-0.30;74.50;;;;;;5057392;28;20473;-82
2022/12/13 02:31:49;;;;;;;12.00;8.43;;;-0.30;74.50;;;;;;5075295;28;20039;-81
2022/12/13 02:34:25;;;;;;;13.02;9.40;;;-0.30;74.50;;;;;;5075550;28;20031;-82
2022/12/13 02:37:14;;;;;;;11.38;8.23;;;-0.30;74.60;;;;;;5057463;28;20115;-82
2022/12/13 02:39:46;;;;;;;13.40;8.85;;;-0.30;74.60;;;;;;5058055;28;20029;-80
2022/12/13 02:42:21;;;;;;;11.35;8.57;;;-0.40;74.50;;;;;;5074203;28;20036;-82
2022/12/13 02:44:56;;;;;;;;;;;-0.30;74.50;;;;;;5075501;28;20036;-82
2022/12/13 02:47:24;;;;;;;10.98;9.07;;;-0.40;74.50;;;;;;5057595;28;19931;-82
2022/12/13 02:49:54;;;;;;;12.25;8.05;;;-0.50;74.40;;;;;;5057104;28;20070;-82
2022/12/13 02:52:24;;;;;;;12.57;8.65;;;-0.40;74.50;;;;;;5073712;28;20119;-82
2022/12/13 02:54:53;;;;;;;11.88;9.35;;;-0.40;74.50;;;;;;5057708;28;20024;-81
2022/12/13 02:57:30;;;;;;;12.98;8.88;;;-0.40;74.50;;;;;;5073600;28;20021;-81
2022/12/13 02:59:59;;;;;;;12.48;9.73;;;-0.40;74.50;;;;;;5073510;28;20056;-80
2022/12/13 03:02:51;;;;;;;11.95;8.85;;;-0.40;74.50;;;;;;5040398;28;20461;-81
2022/12/13 03:08:37;;;;;;;13.20;9.40;;;-0.50;74.40;;;;;;5056914;28;20358;-82
2022/12/13 03:11:09;;;;;;;11.10;8.07;;;-0.50;74.40;;;;;;5057190;28;20029;-81
2022/12/13 03:13:58;;;;;;;11.70;8.38;;;-0.50;74.40;;;;;;5073286;28;20025;-82
2022/12/13 03:16:28;;;;;;;12.90;9.32;;;-0.50;74.50;;;;;;5074447;28;20025;-82
2022/12/13 03:18:59;;;;;;;11.98;9.43;;;-0.50;74.40;;;;;;5073511;28;20032;-82
2022/12/13 03:21:25;;;;;;;12.52;8.55;;;-0.50;74.50;;;;;;5074065;28;20040;-81
2022/12/13 03:23:51;;;;;;;11.07;8.65;;;-0.50;74.50;;;;;;5056698;28;20012;-81
2022/12/13 03:26:22;;;;;;;10.82;8.68;;;-0.50;74.50;;;;;;5039974;28;20544;-81
2022/12/13 03:28:48;;;;;;;10.93;8.32;;;-0.50;74.50;;;;;;5057027;28;20024;-81
2022/12/13 03:31:15;;;;;;;13.43;9.35;;;-0.60;74.50;;;;;;5074812;28;20033;-81
2022/12/13 03:33:40;;;;;;;11.65;8.85;;;-0.60;74.50;;;;;;5073288;28;20031;-80
2022/12/13 03:36:08;;;;;;;12.30;9.23;;;-0.60;74.40;;;;;;5056540;28;20032;-80
2022/12/13 03:38:34;;;;;;;12.55;9.57;;;-0.60;74.40;;;;;;5039689;28;20032;-81
2022/12/13 03:41:06;;;;;;;13.23;8.95;;;-0.60;74.40;;;;;;5074027;28;20044;-82
2022/12/13 03:43:31;;;;;;;12.40;9.02;;;-0.60;74.40;;;;;;5056863;28;20025;-81
2022/12/13 03:46:00;;;;;;;12.70;8.57;;;-0.60;74.40;;;;;;5074349;28;20051;-82
2022/12/13 03:48:25;;;;;;;13.60;9.55;;;-0.60;74.40;;;;;;5073448;28;20060;-81
2022/12/13 03:50:53;;;;;;;12.73;8.20;;;-0.60;74.40;;;;;;5073271;28;20029;-82
2022/12/13 03:53:20;;;;;;;10.50;8.15;;;-0.70;74.30;;;;;;5057114;28;20078;-82
2022/12/13 03:55:46;;;;;;;11.82;8.02;;;-0.60;74.40;;;;;;5074102;28;20493;-81
2022/12/13 03:58:12;;;;;;;12.55;9.60;;;-0.60;74.40;;;;;;5056875;28;20181;-81
2022/12/13 04:00:37;;;;;;;11.73;8.57;;;-0.60;74.40;;;;;;5073870;28;20064;-82
2022/12/13 04:03:03;;;;;;;11.85;9.10;;;-0.70;74.30;;;;;;5072820;28;20128;-81
2022/12/13 04:05:29;;;;;;;13.20;9.63;;;-0.70;74.30;;;;;;5074289;28;20070;-81
2022/12/13 04:07:56;;;;;;;11.48;8.77;;;-0.70;74.30;;;;;;5056334;28;20032;-81
2022/12/13 04:10:22;;;;;;;11.75;9.07;;;-0.70;74.30;;;;;;5074460;28;20036;-81
2022/12/13 04:15:32;;;;;;;12.55;8.82;;;-0.70;74.30;;;;;;5072769;28;20052;-82
2022/12/13 04:17:57;;;;;;;12.65;9.63;;;-0.70;74.30;;;;;;5073383;28;20086;-82
2022/12/13 04:20:23;;;;;;;10.13;8.10;;;-0.70;74.30;;;;;;5072838;28;20143;-81
2022/12/13 04:22:49;;;;;;;12.98;8.93;;;-0.80;74.30;;;;;;5055890;28;20516;-81
2022/12/13 04:25:15;;;;;;;12.10;8.07;;;-0.70;74.30;;;;;;5039057;28;20036;-81
2022/12/13 04:27:41;;;;;;;13.38;8.45;;;-0.80;74.20;;;;;;5073329;28;20032;-81
2022/12/13 04:30:07;;;;;;;12.88;9.20;;;-0.80;74.20;;;;;;5073763;28;20033;-81
2022/12/13 04:32:33;;;;;;;11.93;8.18;;;-0.80;74.30;;;;;;5073827;28;20025;-81
2022/12/13 04:34:59;;;;;;;11.88;8.68;;;-0.80;74.30;;;;;;5073765;28;20044;-81
2022/12/13 04:37:24;;;;;;;13.90;9.57;;;-0.80;74.30;;;;;;5072825;28;20204;-81
2022/12/13 04:39:50;;;;;;;10.32;7.80;;;-0.80;74.30;;;;;;5072731;28;20039;-81
2022/12/13 04:42:16;;;;;;;12.93;8.43;;;-0.80;74.30;;;;;;5072250;28;20041;-80
2022/12/13 04:44:42;;;;;;;12.10;8.00;;;-0.80;74.30;;;;;;5039171;28;20024;-81
2022/12/13 04:47:08;;;;;;;12.32;8.38;;;-0.80;74.30;;;;;;5073371;28;20032;-80
2022/12/13 04:49:34;;;;;;;12.15;8.65;;;-0.80;74.30;;;;;;5057786;28;20036;-81
2022/12/13 04:52:01;;;;;;;12.30;9.18;;;-0.90;74.30;;;;;;5077147;28;20044;-79
2022/12/13 04:54:26;;;;;;;12.77;8.93;;;-0.90;74.30;;;;;;5075942;28;20047;-79
2022/12/13 04:56:52;;;;;;;14.43;9.00;;;-0.90;74.30;;;;;;5042457;28;20055;-81
2022/12/13 04:59:18;;;;;;;11.10;7.32;;;-0.90;74.30;;;;;;5059320;28;20040;-80
2022/12/13 05:01:43;;;;;;;12.30;8.68;;;-0.90;74.30;;;;;;5075956;28;20080;-81
2022/12/13 05:04:09;;;;;;;11.77;8.48;;;-0.90;74.30;;;;;;5077389;28;20024;-81
2022/12/13 05:06:35;;;;;;;12.13;8.80;;;-0.90;74.30;;;;;;5042638;28;20036;-81
2022/12/13 05:09:01;;;;;;;12.55;8.48;;;-0.90;74.30;;;;;;5075859;28;20021;-81
2022/12/13 05:11:31;;;;;;;11.68;8.43;;;-1.00;74.30;;;;;;5076780;28;20044;-81
2022/12/13 05:14:00;;;;;;;11.30;8.27;;;-0.90;74.30;;;;;;5059224;28;20063;-81
2022/12/13 05:16:26;;;;;;;11.90;7.70;;;-1.00;74.20;;;;;;5076205;28;20032;-81
2022/12/13 05:18:52;;;;;;;11.75;8.48;;;-1.00;74.20;;;;;;5075830;28;20036;-81
2022/12/13 05:21:17;;;;;;;12.32;8.40;;;-1.00;74.90;;;;;;5041935;28;20400;-80
2022/12/13 05:23:43;;;;;;;11.93;9.00;;;-1.00;74.20;;;;;;5076471;28;20025;-81
2022/12/13 05:26:09;;;;;;;12.45;9.32;;;-1.00;74.20;;;;;;5058892;28;20056;-79
2022/12/13 05:28:34;;;;;;;11.77;8.52;;;-1.00;74.20;;;;;;5075469;28;20036;-81
2022/12/13 05:31:10;;;;;;;11.48;8.82;;;-1.00;74.20;;;;;;5058714;28;20109;-81
2022/12/13 05:33:36;;;;;;;12.18;7.97;;;-1.00;74.20;;;;;;5076316;28;20032;-80
2022/12/13 05:36:03;;;;;;;10.68;8.30;;;-1.00;74.20;;;;;;5058829;28;20077;-80
2022/12/13 05:38:28;;;;;;;12.32;8.43;;;-1.00;74.20;;;;;;5076365;28;20025;-81
2022/12/13 05:40:54;;;;;;;13.73;9.00;;;-1.00;74.20;;;;;;5075286;28;20044;-81
2022/12/13 05:43:20;;;;;;;12.93;9.20;;;-1.00;74.20;;;;;;5041493;28;20028;-81
2022/12/13 05:45:46;;;;;;;12.70;8.73;;;-1.10;74.20;;;;;;5076031;28;20090;-80
2022/12/13 05:48:12;;;;;;;12.25;8.43;;;-1.10;74.10;;;;;;5041699;28;20020;-81
2022/12/13 05:50:38;;;;;;;12.50;9.00;;;-1.10;74.10;;;;;;5058375;28;20062;-81
2022/12/13 05:53:04;;;;;;;10.90;7.97;;;-1.10;74.10;;;;;;5075943;28;20070;-80
2022/12/13 05:55:30;;;;;;;13.82;9.10;;;-1.00;74.10;;;;;;5076037;28;20131;-80
2022/12/13 05:57:57;;;;;;;11.60;8.60;;;-1.10;74.10;;;;;;5075328;28;20059;-79
2022/12/13 06:00:23;;;;;;;12.57;8.98;;;-1.10;74.10;;;;;;5074514;28;20032;-80
2022/12/13 06:02:49;;;;;;;12.57;8.65;;;-1.10;74.10;;;;;;5074786;28;20024;-81
2022/12/13 06:05:15;;;;;;;13.05;8.52;;;-1.10;74.10;;;;;;5075585;28;20089;-81
2022/12/13 06:07:41;;;;;;;12.75;9.35;;;-1.10;74.10;;;;;;5057815;28;20024;-80
2022/12/13 06:10:07;;;;;;;11.88;9.00;;;-1.10;74.10;;;;;;5058084;28;20112;-80
2022/12/13 06:12:36;;;;;;;12.02;8.18;;;-1.10;74.10;;;;;;5075703;28;20037;-81
2022/12/13 06:15:03;;;;;;;13.45;9.60;;;-1.10;74.10;;;;;;5057423;28;20048;-81
2022/12/13 06:17:32;;;;;;;13.07;8.93;;;-1.20;74.10;;;;;;5057621;28;20075;-81
2022/12/13 06:19:59;;;;;;;12.25;8.75;;;-1.20;74.10;;;;;;5074535;28;20028;-81
2022/12/13 06:22:25;;;;;;;12.65;8.77;;;-1.10;74.10;;;;;;5074147;28;20049;-80
2022/12/13 06:24:51;;;;;;;13.82;9.23;;;-1.20;74.10;;;;;;5074344;28;20107;-81
2022/12/13 06:27:17;;;;;;;11.73;9.05;;;-1.20;74.00;;;;;;5057710;28;20025;-81
2022/12/13 06:29:43;;;;;;;14.60;9.65;;;-1.20;74.00;;;;;;5075182;28;20031;-81
2022/12/13 06:32:09;;;;;;;12.80;9.35;;;-1.20;74.00;;;;;;5057459;28;20032;-80
2022/12/13 06:34:35;;;;;;;12.27;8.50;;;-1.20;74.00;;;;;;5057447;28;20038;-80
2022/12/13 06:37:03;;;;;;;12.15;8.80;;;-1.20;74.00;;;;;;5075069;28;20028;-81
2022/12/13 06:39:29;;;;;;;13.02;8.90;;;-1.20;74.00;;;;;;5041328;28;20021;-81
2022/12/13 06:41:55;;;;;;;14.60;8.95;;;-1.20;74.00;;;;;;5057814;28;20128;-80
2022/12/13 06:44:21;;;;;;;13.48;9.27;;;-1.20;74.00;;;;;;5056978;28;20074;-81
2022/12/13 06:46:46;;;;;;;15.45;9.70;;;-1.20;74.00;;;;;;5057190;28;20142;-81
2022/12/13 06:49:12;;;;;;;12.25;8.73;;;-1.30;73.90;;;;;;5073651;28;20024;-81
2022/12/13 06:51:38;;;;;;;13.82;9.27;;;-1.20;74.00;;;;;;5039883;28;20075;-81
2022/12/13 06:54:03;;;;;;;13.02;9.65;;;-1.30;73.90;;;;;;5073675;28;20028;-81
2022/12/13 06:56:30;;;;;;;11.90;9.00;;;-1.20;74.00;;;;;;5073792;28;20025;-81
2022/12/13 06:58:56;;;;;;;14.98;9.65;;;-1.30;74.00;;;;;;5073692;28;20051;-81
2022/12/13 07:01:22;;;;;;;11.70;8.82;;;-1.30;73.90;;;;;;5057204;28;20529;-81
2022/12/13 07:03:48;;;;;;;13.20;8.85;;;-1.30;73.90;;;;;;5073471;28;20032;-81
2022/12/13 07:06:21;;;;;;;11.95;9.35;;;-1.30;73.90;;;;;;5040225;28;20433;-80
2022/12/13 07:08:49;;;;;;;12.75;9.25;;;-1.30;73.90;;;;;;5073940;28;20427;-81
2022/12/13 07:11:17;;;;;;;14.68;10.30;;;-1.30;74.00;;;;;;5056794;28;20480;-82
2022/12/13 07:13:43;;;;;;;15.10;10.02;;;-1.30;74.00;;;;;;5074541;28;20025;-82
2022/12/13 07:16:11;;;;;;;12.27;9.20;;;-1.30;74.00;;;;;;5073504;28;20071;-82
2022/12/13 07:18:37;;;;;;;13.93;9.68;;;-1.30;74.00;;;;;;5073481;28;20060;-81
2022/12/13 07:21:07;;;;;;;13.45;9.18;;;-1.40;73.90;;;;;;5056527;28;20040;-81
2022/12/13 07:23:34;;;;;;;13.70;9.15;;;-1.30;74.00;;;;;;5074015;28;20120;-80
2022/12/13 07:26:01;;;;;;;13.65;9.15;;;-1.40;73.90;;;;;;5073485;28;20033;-82
2022/12/13 07:28:27;;;;;;;13.18;9.30;;;-1.30;73.90;;;;;;5073514;28;20113;-80
2022/12/13 07:30:53;;;;;;;13.25;9.52;;;-1.40;73.90;;;;;;5074234;28;20170;-81
2022/12/13 07:33:19;;;;;;;15.10;9.73;;;-1.40;73.90;;;;;;5040325;28;20492;-82
2022/12/13 07:35:44;;;;;;;14.50;9.85;;;-1.40;73.90;;;;;;5073615;28;20025;-81
2022/12/13 07:38:11;;;;;;;16.65;9.30;;;-1.40;73.90;;;;;;5056640;28;20033;-80
2022/12/13 07:40:38;;;;;;;13.45;9.02;;;-1.40;73.90;;;;;;5074385;28;20112;-79
2022/12/13 07:43:05;;;;;;;14.35;9.70;;;-1.40;73.90;;;;;;5056662;28;20043;-81
2022/12/13 07:45:31;;;;;;;14.95;9.18;;;-1.40;73.90;;;;;;5073919;28;20064;-89
2022/12/13 07:47:56;;;;;;;13.82;9.00;;;-1.40;73.90;;;;;;5073196;28;20037;-80
2022/12/13 07:50:22;;;;;;;13.27;8.73;;;-1.40;73.90;;;;;;5072351;28;20554;-83
2022/12/13 07:52:49;;;;;;;12.80;9.02;;;-1.40;73.90;;;;;;5039893;28;20060;-80
2022/12/13 07:55:16;;;;;;;13.90;9.88;;;-1.40;73.90;;;;;;5072858;28;20033;-83
2022/12/13 07:57:45;;;;;;;12.50;9.23;;;-1.40;73.90;;;;;;5074179;28;20024;-82
2022/12/13 08:00:11;;;;;;;13.15;9.48;;;-1.40;73.90;;;;;;5056048;28;20128;-78
2022/12/13 08:02:40;;;;;;;14.05;9.60;;;-1.40;73.90;;;;;;5073864;28;20124;-78
2022/12/13 08:05:06;;;;;;;13.80;9.73;;;-1.40;74.00;;;;;;5072659;28;20032;-79
2022/12/13 08:07:32;;;;;;;12.57;9.10;;;-1.40;74.00;;;;;;5073811;28;20028;-78
2022/12/13 08:09:58;;;;;;;14.40;9.43;;;-1.40;73.90;;;;;;5039048;28;20504;-78
2022/12/13 08:12:24;;;;;;;14.73;9.52;;;-1.50;73.90;;;;;;5072708;28;20037;-79
2022/12/13 08:14:50;;;;;;;14.40;10.02;;;-1.50;73.90;;;;;;5073392;28;20128;-79
2022/12/13 08:17:15;;;;;;;13.57;9.88;;;-1.40;74.00;;;;;;5039321;28;20048;-79
2022/12/13 08:19:41;;;;;;;12.88;9.95;;;-1.50;73.90;;;;;;5039372;28;20028;-81
2022/12/13 08:22:10;;;;;;;13.10;9.35;;;-1.40;74.00;;;;;;5055851;28;20036;-81
2022/12/13 08:24:36;;;;;;;13.57;9.65;;;-1.50;73.90;;;;;;5042327;28;20466;-83
2022/12/13 08:27:02;;;;;;;13.00;9.73;;;-1.50;73.90;;;;;;5060298;28;20041;-81
2022/12/13 08:29:33;;;;;;;15.23;10.13;;;-1.50;73.90;;;;;;5077918;28;20461;-81
2022/12/13 08:31:59;;;;;;;13.77;9.95;;;-1.40;74.00;;;;;;5076503;28;20037;-79
2022/12/13 08:34:24;;;;;;;14.13;9.68;;;-1.50;73.90;;;;;;5060025;28;20047;-77
2022/12/13 08:36:51;;;;;;;16.95;11.13;;;-1.50;73.90;;;;;;5077186;28;20443;-80
2022/12/13 08:39:16;;;;;;;16.42;10.57;;;-1.40;74.00;;;;;;5077258;28;20032;-81
2022/12/13 08:41:42;;;;;;;15.15;11.20;;;-1.50;73.80;;;;;;5059101;28;20130;-78
2022/12/13 08:44:08;;;;;;;15.05;10.93;;;-1.40;73.90;;;;;;5059298;28;20103;-77
2022/12/13 08:46:34;;;;;;;16.58;11.48;;;-1.40;73.90;;;;;;5077296;28;20024;-78
2022/12/13 08:48:59;;;;;;;15.65;10.68;;;-1.50;73.80;;;;;;5042415;28;20029;-78
2022/12/13 08:51:25;;;;;;;15.88;10.93;;;-1.40;73.90;;;;;;5075161;28;20040;-78
2022/12/13 08:53:51;;;;;;;14.20;10.48;;;-1.40;73.90;;;;;;5058743;28;20115;-78
2022/12/13 08:56:20;;;;;;;15.23;11.05;;;-1.50;73.90;;;;;;5075721;28;20033;-78
2022/12/13 08:58:50;;;;;;;16.13;10.88;;;-1.50;73.90;;;;;;5076448;28;20079;-78
2022/12/13 09:01:17;;;;;;;15.90;10.70;;;-1.40;73.90;;;;;;5042118;28;20055;-77
2022/12/13 09:03:43;;;;;;;14.88;11.63;;;-1.40;74.60;;;;;;5058452;28;20021;-78
2022/12/13 09:06:12;;;;;;;14.18;10.40;;;-1.40;73.90;;;;;;5075259;28;20029;-79
2022/12/13 09:08:38;;;;;;;15.27;10.95;;;-1.40;73.90;;;;;;5076326;28;20066;-79
2022/12/13 09:11:04;;;;;;;16.70;10.45;;;-1.40;73.90;;;;;;5058675;28;20520;-78
2022/12/13 09:13:32;;;;;;;16.10;11.15;;;-1.40;73.90;;;;;;5075603;28;20041;-81
2022/12/13 09:16:02;;;;;;;17.15;11.57;;;-1.40;73.90;;;;;;5058595;28;20360;-82
2022/12/13 09:18:28;;;;;;;15.13;10.98;;;-1.40;73.90;;;;;;5041974;28;20381;-78
2022/12/13 09:20:54;;;;;;;15.52;10.73;;;-1.40;73.90;;;;;;5076277;28;20029;-78
2022/12/13 09:23:19;;;;;;;15.35;9.85;;;-1.40;73.80;;;;;;5041675;28;20366;-80
2022/12/13 09:25:55;;;;;;;13.85;10.52;;;-1.30;73.80;;;;;;5075528;28;20028;-81
2022/12/13 09:28:21;;;;;;;13.55;9.63;;;-1.30;73.80;;;;;;5059198;28;20470;-82
2022/12/13 09:30:47;;;;;;;15.48;11.68;;;-1.30;73.80;;;;;;5058480;28;20040;-80
2022/12/13 09:33:13;;;;;;;12.88;9.45;;;-1.30;73.80;;;;;;5075887;28;20025;-78
2022/12/13 09:35:39;;;;;;;15.15;10.88;;;-1.30;73.80;;;;;;5076456;28;20418;-80
2022/12/13 09:38:04;;;;;;;13.00;8.90;;;-1.30;73.80;;;;;;5075127;28;20473;-82
2022/12/13 09:40:32;;;;;;;13.45;9.77;;;-1.30;73.70;;;;;;5075467;28;20049;-78
2022/12/13 09:42:59;;;;;;;13.63;9.77;;;-1.20;73.80;;;;;;5058785;28;20024;-80
2022/12/13 09:45:25;;;;;;;14.95;10.93;;;-1.20;73.80;;;;;;5041237;28;20124;-78
2022/12/13 09:47:52;;;;;;;12.30;9.00;;;-1.20;73.80;;;;;;5059122;28;20029;-82
2022/12/13 09:50:26;;;;;;;13.80;9.90;;;-1.20;73.80;;;;;;5058170;28;20119;-83
2022/12/13 09:52:52;;;;;;;14.93;9.95;;;-1.10;73.90;;;;;;5075564;28;20036;-81
2022/12/13 09:55:22;;;;;;;15.13;9.88;;;-1.20;73.70;;;;;;5057982;28;20055;-80
2022/12/13 09:57:50;;;;;;;14.48;10.75;;;-1.10;73.80;;;;;;5041788;28;20029;-80
2022/12/13 10:00:19;;;;;;;14.93;11.00;;;-1.10;73.80;;;;;;5074577;28;20031;-79
2022/12/13 10:02:48;;;;;;;15.50;10.60;;;-1.10;73.80;;;;;;5057586;28;20032;-79
2022/12/13 10:05:18;;;;;;;14.52;9.98;;;-1.10;73.80;;;;;;5058129;28;20025;-81
2022/12/13 10:07:44;;;;;;;14.65;9.88;;;-1.10;73.70;;;;;;5058294;28;20096;-78
2022/12/13 10:10:13;;;;;;;13.02;9.60;;;-1.10;73.70;;;;;;5057776;28;20059;-80
2022/12/13 10:12:44;;;;;;;14.35;10.43;;;-1.00;73.80;;;;;;5073928;28;20039;-80
2022/12/13 10:15:14;;;;;;;14.68;9.57;;;-1.10;73.70;;;;;;5074314;28;20056;-79
2022/12/13 10:17:40;;;;;;;11.70;8.50;;;-1.00;73.80;;;;;;5057623;28;20483;-79
2022/12/13 10:20:16;;;;;;;14.55;9.77;;;-1.00;73.70;;;;;;5057504;28;20042;-78
2022/12/13 10:22:41;;;;;;;14.90;9.75;;;-1.00;73.80;;;;;;5057484;28;20032;-86
2022/12/13 10:25:07;;;;;;;13.27;9.13;;;-1.00;73.70;;;;;;5075444;28;20033;-77
2022/12/13 10:27:46;;;;;;;14.07;9.43;;;-1.00;73.70;;;;;;5074797;28;20037;-81
2022/12/13 10:30:20;;;;;;;14.75;9.48;;;-0.90;73.80;;;;;;5074951;28;20024;-81
2022/12/13 10:33:04;;;;;;;12.90;9.52;;;-0.90;73.80;;;;;;5074633;28;20119;-80
2022/12/13 10:35:36;;;;;;;13.45;8.95;;;-0.90;73.80;;;;;;5074130;28;20411;-81
2022/12/13 10:38:25;;;;;;;13.43;9.52;;;-0.90;73.90;;;;;;5057232;28;20021;-81
2022/12/13 10:40:51;;;;;;;13.48;9.65;;;-0.80;73.90;;;;;;5057433;28;20086;-80
2022/12/13 10:43:22;;;;;;;13.73;9.48;;;-0.90;73.80;;;;;;5074007;28;20052;-80
2022/12/13 10:46:16;;;;;;;12.63;8.90;;;-0.80;73.90;;;;;;5074649;28;20091;-80
2022/12/13 10:48:50;;;;;;;13.88;9.10;;;-0.80;73.90;;;;;;5074999;28;20029;-77
2022/12/13 10:51:19;;;;;;;13.23;9.57;;;-0.80;73.80;;;;;;5074610;28;20186;-79
2022/12/13 10:54:16;;;;;;;13.23;9.30;;;-0.80;73.80;;;;;;5056879;28;20040;-79
2022/12/13 10:56:52;;;;;;;13.23;9.20;;;-0.80;73.90;;;;;;5072022;28;20128;-80
2022/12/13 10:59:27;;;;;;;12.68;9.35;;;-0.70;74.50;;;;;;5073264;28;20035;-77
2022/12/13 11:01:53;;;;;;;13.05;9.05;;;-0.70;73.90;;;;;;5072929;28;20098;-80
2022/12/13 11:04:30;;;;;;;12.70;9.07;;;-0.70;73.80;;;;;;5056312;28;20021;-77
2022/12/13 11:07:26;;;;;;;13.75;10.15;;;-0.70;73.90;;;;;;5073737;28;20032;-76
2022/12/13 11:09:52;;;;;;;12.80;9.57;;;-0.70;73.90;;;;;;5055975;28;20115;-77
2022/12/13 11:12:22;;;;;;;13.50;9.98;;;-0.70;73.90;;;;;;5072478;28;20429;-77
2022/12/13 11:15:01;;;;;;;12.18;9.15;;;-0.60;73.90;;;;;;5073931;28;20029;-77
2022/12/13 11:17:30;;;;;;;14.20;9.48;;;-0.60;73.90;;;;;;5072343;28;20048;-77
2022/12/13 11:20:03;;;;;;;13.88;9.52;;;-0.60;73.90;;;;;;5073781;28;20028;-77
2022/12/13 11:22:38;;;;;;;13.95;9.57;;;-0.50;74.00;;;;;;5073448;28;20037;-77
2022/12/13 11:25:20;;;;;;;13.55;9.55;;;-0.50;74.60;;;;;;5056127;28;20457;-76
2022/12/13 11:27:52;;;;;;;14.05;10.13;;;-0.40;74.00;;;;;;5073642;28;20028;-77
2022/12/13 11:30:23;;;;;;;14.30;9.57;;;-0.50;73.90;;;;;;5074239;28;20024;-78
2022/12/13 11:32:59;;;;;;;15.18;9.88;;;-0.50;73.90;;;;;;5055603;28;20020;-78
2022/12/13 11:35:55;;;;;;;14.93;10.23;;;-0.40;74.00;;;;;;5073616;28;20025;-77
2022/12/13 11:38:46;;;;;;;14.38;9.52;;;-0.40;74.60;;;;;;5072963;28;20059;-77
2022/12/13 11:41:18;;;;;;;13.27;8.73;;;-0.40;74.00;;;;;;5055447;28;20039;-77
2022/12/13 11:43:57;;;;;;;14.23;9.68;;;-0.30;74.00;;;;;;5039034;28;20060;-77
2022/12/13 11:46:49;;;;;;;13.63;9.15;;;-0.30;74.00;;;;;;5072614;28;20055;-77
2022/12/13 11:49:17;;;;;;;11.93;9.05;;;-0.30;74.00;;;;;;5074068;28;20082;-77
2022/12/13 11:51:56;;;;;;;12.43;8.70;;;-0.30;74.00;;;;;;5072500;28;20036;-77
2022/12/13 11:54:43;;;;;;;13.02;9.55;;;-0.20;74.10;;;;;;5056539;28;20090;-77
2022/12/13 11:57:35;;;;;;;12.85;9.23;;;-0.20;74.10;;;;;;5056376;28;20032;-77
2022/12/13 12:00:16;;;;;;;13.02;9.70;;;-0.20;74.10;;;;;;5048268;28;20036;-78
2022/12/13 12:02:49;;;;;;;12.35;8.73;;;-0.10;74.10;;;;;;5077855;28;20040;-77
2022/12/13 12:05:37;;;;;;;13.95;9.40;;;-0.10;74.10;;;;;;5077867;28;20033;-78
2022/12/13 12:08:15;;;;;;;13.90;9.60;;;-0.10;74.10;;;;;;5077140;28;20021;-77
2022/12/13 12:10:43;;;;;;;13.75;9.52;;;0.00;74.10;;;;;;5077350;28;20029;-77
2022/12/13 12:13:14;;;;;;;13.00;9.07;;;0.00;74.10;;;;;;5076240;28;20515;-77
2022/12/13 12:16:17;;;;;;;13.00;9.15;;;0.00;74.10;;;;;;5043199;28;20028;-78
2022/12/13 12:18:43;;;;;;;13.68;9.63;;;0.00;74.20;;;;;;5076218;28;20039;-78
2022/12/13 12:21:29;;;;;;;14.32;10.40;;;0.00;74.10;;;;;;5077616;28;20119;-77
2022/12/13 12:24:04;;;;;;;13.15;9.43;;;0.10;74.20;;;;;;5075865;28;20495;-77
2022/12/13 12:26:38;;;;;;;;;;;0.10;74.20;;;;;;5077030;28;20054;-77
2022/12/13 12:29:26;;;;;;;12.88;9.32;;;0.00;74.10;;;;;;5059500;28;19916;-78
2022/12/13 12:32:15;;;;;;;12.65;9.50;;;0.10;74.10;;;;;;5059476;28;20481;-77
2022/12/13 12:35:03;;;;;;;12.95;8.55;;;0.20;74.20;;;;;;5076985;28;20032;-78
2022/12/13 12:38:21;;;;;;;13.00;9.10;;;0.20;74.20;;;;;;5059658;28;20024;-76
2022/12/13 12:41:23;;;;;;;11.77;8.52;;;0.20;74.20;;;;;;5055616;28;20056;-76
2022/12/13 12:44:27;;;;;;;11.48;8.43;;;0.20;74.20;;;;;;5076354;28;20024;-76
2022/12/13 12:47:02;;;;;;;11.38;8.57;;;0.30;74.30;;;;;;5042303;28;20379;-77
2022/12/13 12:49:46;;;;;;;;;;;0.30;74.30;;;;;;5077537;28;20030;-77
2022/12/13 12:52:26;;;;;;;11.13;8.25;;;0.20;74.20;;;;;;5076401;28;19954;-78
2022/12/13 12:54:52;;;;;;;12.07;8.65;;;0.20;74.20;;;;;;5076669;28;20024;-77
2022/12/13 12:57:57;;;;;;;13.52;9.07;;;0.30;74.20;;;;;;5074987;28;20496;-77
2022/12/13 13:00:27;;;;;;;;;;;0.30;74.30;;;;;;5046471;28;20124;-78